createdAt,value
2023-02-24T00:00:38.527Z,6.59
2023-02-24T00:03:11.145Z,6.57
2023-02-24T00:05:44.611Z,6.56
2023-02-24T00:08:14.519Z,6.54
2023-02-24T00:10:43.210Z,6.53
2023-02-24T00:13:13.096Z,6.52
2023-02-24T00:15:41.872Z,6.51
2023-02-24T00:18:10.541Z,6.48
2023-02-24T00:20:38.971Z,6.47
2023-02-24T00:23:09.817Z,6.45
2023-02-24T00:25:39.568Z,6.44
2023-02-24T00:28:08.878Z,6.44
2023-02-24T00:30:37.322Z,6.43
2023-02-24T00:33:06.735Z,6.42
2023-02-24T00:35:35.786Z,6.42
2023-02-24T00:38:04.727Z,6.40
2023-02-24T00:40:37.207Z,6.40
2023-02-24T00:43:08.056Z,6.39
2023-02-24T00:45:39.119Z,6.37
2023-02-24T00:48:10.757Z,6.35
2023-02-24T00:50:40.264Z,6.32
2023-02-24T00:53:10.629Z,6.31
2023-02-24T00:55:39.055Z,6.29
2023-02-24T00:58:08.830Z,6.29
2023-02-24T01:00:37.741Z,6.26
2023-02-24T01:03:07.483Z,6.26
2023-02-24T01:05:37.913Z,6.24
2023-02-24T01:08:06.394Z,6.21
2023-02-24T01:10:35.612Z,6.17
2023-02-24T01:13:03.103Z,6.14
2023-02-24T01:15:32.887Z,6.11
2023-02-24T01:18:01.370Z,6.10
2023-02-24T01:20:30.519Z,6.09
2023-02-24T01:22:59.118Z,6.08
2023-02-24T01:25:31.410Z,6.07
2023-02-24T01:27:59.905Z,6.05
2023-02-24T01:30:29.212Z,6.04
2023-02-24T01:33:01.713Z,6.03
2023-02-24T01:35:34.924Z,6.01
2023-02-24T01:38:04.126Z,6.01
2023-02-24T01:40:32.933Z,6.00
2023-02-24T01:43:01.401Z,5.99
2023-02-24T01:45:36.790Z,5.98
2023-02-24T01:48:11.048Z,5.96
2023-02-24T01:50:40.028Z,5.95
2023-02-24T01:53:11.471Z,5.94
2023-02-24T01:55:46.633Z,5.91
2023-02-24T01:58:22.213Z,5.90
2023-02-24T02:00:51.728Z,5.90
2023-02-24T02:03:30.915Z,5.88
2023-02-24T02:06:02.785Z,5.86
2023-02-24T02:08:31.991Z,5.85
2023-02-24T02:11:06.044Z,5.83
2023-02-24T02:13:38.143Z,5.82
2023-02-24T02:16:47.193Z,5.81
2023-02-24T02:20:07.157Z,5.79
2023-02-24T02:23:10.146Z,5.78
2023-02-24T02:25:57.904Z,5.78
2023-02-24T02:29:00.201Z,5.76
2023-02-24T02:31:55.627Z,5.73
2023-02-24T02:34:36.885Z,5.71
2023-02-24T02:37:12.162Z,5.69
2023-02-24T02:39:52.628Z,5.65
2023-02-24T02:42:28.749Z,5.62
2023-02-24T02:45:05.703Z,5.60
2023-02-24T02:47:41.384Z,5.59
2023-02-24T02:50:21.311Z,5.57
2023-02-24T02:52:55.080Z,5.55
2023-02-24T02:55:32.908Z,5.52
2023-02-24T02:58:04.742Z,5.50
2023-02-24T03:00:42.072Z,5.50
2023-02-24T03:03:14.928Z,5.49
2023-02-24T03:05:48.645Z,5.48
2023-02-24T03:08:23.595Z,5.47
2023-02-24T03:10:55.227Z,5.43
2023-02-24T03:13:28.129Z,5.41
2023-02-24T03:16:00.440Z,5.40
2023-02-24T03:18:32.625Z,5.38
2023-02-24T03:21:07.912Z,5.34
2023-02-24T03:23:45.352Z,5.33
2023-02-24T03:26:21.662Z,5.32
2023-02-24T03:28:59.505Z,5.31
2023-02-24T03:31:36.900Z,5.30
2023-02-24T03:34:09.292Z,5.28
2023-02-24T03:36:39.550Z,5.28
2023-02-24T03:39:11.941Z,5.26
2023-02-24T03:41:54.181Z,5.23
2023-02-24T03:44:24.773Z,5.24
2023-02-24T03:46:55.762Z,5.22
2023-02-24T03:49:25.428Z,5.21
2023-02-24T03:52:09.625Z,5.19
2023-02-24T03:54:51.842Z,5.18
2023-02-24T03:57:31.041Z,5.17
2023-02-24T04:00:20.489Z,5.17
2023-02-24T04:02:57.365Z,5.16
2023-02-24T04:05:30.012Z,5.14
2023-02-24T04:08:08.034Z,5.13
2023-02-24T04:10:40.379Z,5.13
2023-02-24T04:13:20.382Z,5.13
2023-02-24T04:15:57.350Z,5.12
2023-02-24T04:18:29.223Z,5.12
2023-02-24T04:21:00.712Z,5.11
2023-02-24T04:23:33.721Z,5.10
2023-02-24T04:26:03.041Z,5.09
2023-02-24T04:28:32.396Z,5.08
2023-02-24T04:31:06.426Z,5.06
2023-02-24T04:33:38.489Z,5.06
2023-02-24T04:36:09.095Z,5.06
2023-02-24T04:38:41.402Z,5.06
2023-02-24T04:41:10.911Z,5.05
2023-02-24T04:43:40.937Z,5.03
2023-02-24T04:46:09.343Z,5.02
2023-02-24T04:48:39.089Z,5.03
2023-02-24T04:51:07.660Z,5.03
2023-02-24T04:53:38.091Z,5.01
2023-02-24T04:56:09.403Z,5.02
2023-02-24T04:58:42.667Z,5.01
2023-02-24T05:01:12.251Z,5.00
2023-02-24T05:03:42.584Z,4.98
2023-02-24T05:06:16.636Z,4.98
2023-02-24T05:08:45.314Z,4.96
2023-02-24T05:11:17.120Z,4.96
2023-02-24T05:13:47.154Z,4.92
2023-02-24T05:16:18.291Z,4.91
2023-02-24T05:18:46.970Z,4.91
2023-02-24T05:21:35.466Z,4.89
2023-02-24T05:24:06.898Z,4.85
2023-02-24T05:26:38.905Z,4.85
2023-02-24T05:29:08.429Z,4.85
2023-02-24T05:31:37.458Z,4.85
2023-02-24T05:34:08.103Z,4.84
2023-02-24T05:36:40.316Z,4.85
2023-02-24T05:39:12.221Z,4.85
2023-02-24T05:41:44.342Z,4.83
2023-02-24T05:44:15.841Z,4.83
2023-02-24T05:46:46.999Z,4.83
2023-02-24T05:49:23.446Z,4.83
2023-02-24T05:51:55.795Z,4.84
2023-02-24T05:54:29.060Z,4.84
2023-02-24T05:57:00.211Z,4.84
2023-02-24T05:59:32.865Z,4.85
2023-02-24T06:02:07.146Z,4.84
2023-02-24T06:04:50.973Z,4.84
2023-02-24T06:07:22.964Z,4.84
2023-02-24T06:09:53.998Z,4.83
2023-02-24T06:12:27.362Z,4.81
2023-02-24T06:14:58.005Z,4.82
2023-02-24T06:17:26.829Z,4.81
2023-02-24T06:19:55.631Z,4.81
2023-02-24T06:22:25.831Z,4.79
2023-02-24T06:24:55.338Z,4.78
2023-02-24T06:27:25.761Z,4.75
2023-02-24T06:29:56.793Z,4.74
2023-02-24T06:32:28.090Z,4.73
2023-02-24T06:34:57.485Z,4.73
2023-02-24T06:37:26.085Z,4.72
2023-02-24T06:39:54.653Z,4.70
2023-02-24T06:42:23.350Z,4.72
2023-02-24T06:44:54.014Z,4.72
2023-02-24T06:47:22.853Z,4.72
2023-02-24T06:49:51.566Z,4.72
2023-02-24T06:52:20.055Z,4.72
2023-02-24T06:54:52.446Z,4.72
2023-02-24T06:57:21.020Z,4.70
2023-02-24T06:59:50.973Z,4.67
2023-02-24T07:02:21.061Z,4.66
2023-02-24T07:04:49.496Z,4.65
2023-02-24T07:07:18.950Z,4.65
2023-02-24T07:09:47.369Z,4.65
2023-02-24T07:12:20.970Z,4.62
2023-02-24T07:14:50.883Z,4.63
2023-02-24T07:17:23.396Z,4.63
2023-02-24T07:19:54.618Z,4.63
2023-02-24T07:22:25.308Z,4.63
2023-02-24T07:25:00.512Z,4.61
2023-02-24T07:27:30.139Z,4.61
2023-02-24T07:29:59.331Z,4.61
2023-02-24T07:32:30.487Z,4.62
2023-02-24T07:34:59.686Z,4.64
2023-02-24T07:37:31.807Z,4.67
2023-02-24T07:40:01.908Z,4.66
2023-02-24T07:42:35.386Z,4.68
2023-02-24T07:45:08.519Z,4.68
2023-02-24T07:47:38.445Z,4.68
2023-02-24T07:50:13.544Z,4.66
2023-02-24T07:52:42.326Z,4.67
2023-02-24T07:55:11.986Z,4.68
2023-02-24T07:57:41.623Z,4.68
2023-02-24T08:00:19.699Z,4.67
2023-02-24T08:02:51.618Z,4.65
2023-02-24T08:05:20.544Z,4.65
2023-02-24T08:07:50.717Z,4.66
2023-02-24T08:10:26.748Z,4.65
2023-02-24T08:12:56.655Z,4.67
2023-02-24T08:15:33.997Z,4.67
2023-02-24T08:18:04.104Z,4.69
2023-02-24T08:20:52.143Z,4.69
2023-02-24T08:23:23.510Z,4.69
2023-02-24T08:25:53.749Z,4.70
2023-02-24T08:28:26.815Z,4.71
2023-02-24T08:30:55.417Z,4.74
2023-02-24T08:33:30.196Z,4.71
2023-02-24T08:36:02.571Z,4.72
2023-02-24T08:38:41.916Z,4.74
2023-02-24T08:41:20.227Z,4.75
2023-02-24T08:43:49.741Z,4.77
2023-02-24T08:46:21.364Z,4.79
2023-02-24T08:48:55.605Z,4.80
2023-02-24T08:51:29.072Z,4.81
2023-02-24T08:54:00.786Z,4.83
2023-02-24T08:56:34.493Z,4.85
2023-02-24T08:59:06.392Z,4.85
2023-02-24T09:01:36.786Z,4.89
2023-02-24T09:04:09.269Z,4.92
2023-02-24T09:06:41.455Z,4.92
2023-02-24T09:09:19.017Z,4.91
2023-02-24T09:11:49.423Z,4.92
2023-02-24T09:14:27.246Z,4.95
2023-02-24T09:17:05.865Z,4.98
2023-02-24T09:20:01.923Z,5.00
2023-02-24T09:22:33.061Z,4.98
2023-02-24T09:25:21.802Z,4.98
2023-02-24T09:27:56.418Z,5.00
2023-02-24T09:30:38.896Z,4.98
2023-02-24T09:33:17.876Z,5.02
2023-02-24T09:35:50.735Z,5.06
2023-02-24T09:38:21.117Z,5.07
2023-02-24T09:40:50.523Z,5.07
2023-02-24T09:43:24.565Z,5.09
2023-02-24T09:46:01.837Z,5.09
2023-02-24T09:48:43.928Z,5.09
2023-02-24T09:51:22.921Z,5.12
2023-02-24T09:53:54.828Z,5.12
2023-02-24T09:56:37.240Z,5.11
2023-02-24T09:59:26.112Z,5.12
2023-02-24T10:02:04.034Z,5.12
2023-02-24T10:04:55.936Z,5.11
2023-02-24T10:07:38.469Z,5.13
2023-02-24T10:10:20.615Z,5.14
2023-02-24T10:12:53.333Z,5.15
2023-02-24T10:15:56.952Z,5.15
2023-02-24T10:18:32.972Z,5.17
2023-02-24T10:21:15.621Z,5.14
2023-02-24T10:24:05.822Z,5.13
2023-02-24T10:26:59.706Z,5.15
2023-02-24T10:29:43.556Z,5.20
2023-02-24T10:32:23.952Z,5.21
2023-02-24T10:34:53.712Z,5.18
2023-02-24T10:37:28.770Z,5.17
2023-02-24T10:40:09.658Z,5.11
2023-02-24T10:42:45.925Z,5.09
2023-02-24T10:45:19.635Z,5.05
2023-02-24T10:47:56.796Z,5.02
2023-02-24T10:50:30.300Z,4.98
2023-02-24T10:53:26.200Z,4.95
2023-02-24T10:56:15.367Z,4.93
2023-02-24T10:58:56.852Z,4.93
2023-02-24T11:01:43.612Z,4.92
2023-02-24T11:04:33.614Z,4.94
2023-02-24T11:07:11.745Z,4.93
2023-02-24T11:09:52.426Z,4.91
2023-02-24T11:12:42.115Z,4.87
2023-02-24T11:18:56.156Z,4.80
2023-02-24T11:21:27.642Z,4.77
2023-02-24T11:23:59.568Z,4.73
2023-02-24T11:26:35.413Z,4.68
2023-02-24T11:29:26.735Z,4.64
2023-02-24T11:32:15.534Z,4.61
2023-02-24T11:34:53.856Z,4.56
2023-02-24T11:37:34.616Z,4.54
2023-02-24T11:40:08.140Z,4.49
2023-02-24T11:42:43.687Z,4.44
2023-02-24T11:45:29.346Z,4.39
2023-02-24T11:48:03.665Z,4.35
2023-02-24T11:50:43.579Z,4.32
2023-02-24T11:53:28.350Z,4.29
2023-02-24T11:56:04.353Z,4.26
2023-02-24T11:58:46.283Z,4.23
2023-02-24T12:01:24.420Z,4.22
2023-02-24T12:04:00.272Z,4.20
2023-02-24T12:06:35.310Z,4.18
2023-02-24T12:09:12.813Z,4.15
2023-02-24T12:11:51.365Z,4.11
2023-02-24T12:14:27.657Z,4.07
2023-02-24T12:17:07.757Z,4.04
2023-02-24T12:19:42.312Z,4.04
2023-02-24T12:22:16.129Z,4.01
2023-02-24T12:24:52.133Z,3.99
2023-02-24T12:27:34.276Z,3.99
2023-02-24T12:30:34.060Z,3.98
2023-02-24T12:33:17.212Z,3.97
2023-02-24T12:35:51.400Z,3.95
2023-02-24T12:38:35.850Z,3.89
2023-02-24T12:41:19.199Z,3.85
2023-02-24T12:43:56.366Z,3.83
2023-02-24T12:46:27.857Z,3.80
2023-02-24T12:49:23.486Z,3.81
2023-02-24T12:51:59.894Z,3.80
2023-02-24T12:54:33.923Z,3.81
2023-02-24T12:57:12.541Z,3.81
2023-02-24T12:59:42.479Z,3.80
2023-02-24T13:02:20.985Z,3.80
2023-02-24T13:05:01.362Z,3.80
2023-02-24T13:07:51.957Z,3.81
2023-02-24T13:10:33.670Z,3.80
2023-02-24T13:13:11.879Z,3.82
2023-02-24T13:15:51.408Z,3.81
2023-02-24T13:18:28.847Z,3.79
2023-02-24T13:21:10.663Z,3.78
2023-02-24T13:23:43.754Z,3.78
2023-02-24T13:26:12.110Z,3.79
2023-02-24T13:28:40.588Z,3.82
2023-02-24T13:31:11.544Z,3.83
2023-02-24T13:33:41.402Z,3.83
2023-02-24T13:36:15.404Z,3.85
2023-02-24T13:38:45.766Z,3.86
2023-02-24T13:41:35.783Z,3.86
2023-02-24T13:44:22.053Z,3.86
2023-02-24T13:47:10.265Z,3.86
2023-02-24T13:49:50.804Z,3.86
2023-02-24T13:52:36.697Z,3.87
2023-02-24T13:55:26.060Z,3.87
2023-02-24T13:58:21.555Z,3.89
2023-02-24T14:00:57.274Z,3.89
2023-02-24T14:03:27.777Z,3.89
2023-02-24T14:05:57.370Z,3.89
2023-02-24T14:08:35.785Z,3.91
2023-02-24T14:11:04.534Z,3.93
2023-02-24T14:13:36.673Z,3.96
2023-02-24T14:16:09.196Z,3.98
2023-02-24T14:18:38.224Z,3.99
2023-02-24T14:21:06.861Z,4.00
2023-02-24T14:23:37.739Z,4.02
2023-02-24T14:26:09.116Z,4.05
2023-02-24T14:28:40.508Z,4.05
2023-02-24T14:31:13.616Z,4.07
2023-02-24T14:33:45.309Z,4.08
2023-02-24T14:36:19.898Z,4.10
2023-02-24T14:39:02.265Z,4.11
2023-02-24T14:41:30.757Z,4.11
2023-02-24T14:43:59.096Z,4.11
2023-02-24T14:46:27.606Z,4.13
2023-02-24T14:48:57.234Z,4.15
2023-02-24T14:51:30.130Z,4.16
2023-02-24T14:54:04.447Z,4.17
2023-02-24T14:56:35.403Z,4.19
2023-02-24T14:59:08.663Z,4.19
2023-02-24T15:01:40.710Z,4.22
2023-02-24T15:04:14.954Z,4.25
2023-02-24T15:06:44.780Z,4.26
2023-02-24T15:09:19.325Z,4.27
2023-02-24T15:11:48.476Z,4.30
2023-02-24T15:14:24.033Z,4.31
2023-02-24T15:16:54.228Z,4.33
2023-02-24T15:19:27.470Z,4.37
2023-02-24T15:21:56.159Z,4.39
2023-02-24T15:24:29.817Z,4.42
2023-02-24T15:27:00.004Z,4.43
2023-02-24T15:29:31.120Z,4.46
2023-02-24T15:32:01.293Z,4.48
2023-02-24T15:34:32.016Z,4.51
2023-02-24T15:37:04.412Z,4.53
2023-02-24T15:39:36.963Z,4.57
2023-02-24T15:42:10.683Z,4.58
2023-02-24T15:44:39.119Z,4.62
2023-02-24T15:47:22.862Z,4.65
2023-02-24T15:49:51.169Z,4.67
2023-02-24T15:52:24.077Z,4.69
2023-02-24T15:54:54.556Z,4.71
2023-02-24T15:57:23.505Z,4.73
2023-02-24T15:59:53.344Z,4.74
2023-02-24T16:02:24.159Z,4.75
2023-02-24T16:04:53.120Z,4.78
2023-02-24T16:07:24.722Z,4.79
2023-02-24T16:09:56.029Z,4.81
2023-02-24T16:12:28.736Z,4.82
2023-02-24T16:15:02.957Z,4.84
2023-02-24T16:17:34.117Z,4.86
2023-02-24T16:20:08.476Z,4.87
2023-02-24T16:22:37.562Z,4.89
2023-02-24T16:25:08.716Z,4.91
2023-02-24T16:27:37.316Z,4.93
2023-02-24T16:30:07.390Z,4.92
2023-02-24T16:32:36.070Z,4.94
2023-02-24T16:35:04.837Z,4.94
2023-02-24T16:37:33.192Z,4.94
2023-02-24T16:40:01.631Z,4.96
2023-02-24T16:42:31.538Z,4.97
2023-02-24T16:44:59.908Z,4.99
2023-02-24T16:47:28.349Z,5.02
2023-02-24T16:49:57.696Z,5.02
2023-02-24T16:52:26.002Z,5.03
2023-02-24T16:54:54.345Z,5.04
2023-02-24T16:57:25.396Z,5.04
2023-02-24T16:59:55.345Z,5.04
2023-02-24T17:02:26.255Z,5.04
2023-02-24T17:04:54.596Z,5.05
2023-02-24T17:07:23.034Z,5.04
2023-02-24T17:09:51.512Z,5.04
2023-02-24T17:12:22.335Z,5.05
2023-02-24T17:14:50.980Z,5.06
2023-02-24T17:17:23.033Z,5.06
2023-02-24T17:19:54.085Z,5.04
2023-02-24T17:22:23.250Z,5.06
2023-02-24T17:24:51.761Z,5.06
2023-02-24T17:27:20.461Z,5.06
2023-02-24T17:29:48.924Z,5.06
2023-02-24T17:32:20.117Z,5.07
2023-02-24T17:34:50.158Z,5.06
2023-02-24T17:37:18.588Z,5.08
2023-02-24T17:39:47.080Z,5.08
2023-02-24T17:42:15.583Z,5.09
2023-02-24T17:44:45.300Z,5.10
2023-02-24T17:47:14.094Z,5.11
2023-02-24T17:49:42.608Z,5.11
2023-02-24T17:52:12.609Z,5.13
2023-02-24T17:54:41.051Z,5.13
2023-02-24T17:57:09.738Z,5.15
2023-02-24T17:59:38.496Z,5.16
2023-02-24T18:02:07.312Z,5.17
2023-02-24T18:04:35.943Z,5.17
2023-02-24T18:07:04.522Z,5.18
2023-02-24T18:09:36.801Z,5.19
2023-02-24T18:12:07.311Z,5.20
2023-02-24T18:14:36.675Z,5.21
2023-02-24T18:17:05.316Z,5.21
2023-02-24T18:19:34.263Z,5.20
2023-02-24T18:22:02.834Z,5.21
2023-02-24T18:24:31.429Z,5.22
2023-02-24T18:27:04.388Z,5.22
2023-02-24T18:29:33.280Z,5.22
2023-02-24T18:32:03.238Z,5.22
2023-02-24T18:34:32.239Z,5.22
2023-02-24T18:37:01.511Z,5.22
2023-02-24T18:39:30.666Z,5.21
2023-02-24T18:41:59.662Z,5.22
2023-02-24T18:44:29.622Z,5.22
2023-02-24T18:46:58.353Z,5.22
2023-02-24T18:49:26.988Z,5.22
2023-02-24T18:51:55.642Z,5.22
2023-02-24T18:54:24.518Z,5.21
2023-02-24T18:56:54.218Z,5.18
2023-02-24T18:59:22.682Z,5.12
2023-02-24T19:01:53.277Z,5.09
2023-02-24T19:04:21.890Z,5.04
2023-02-24T19:06:50.745Z,5.01
2023-02-24T19:09:22.024Z,4.96
2023-02-24T19:11:52.886Z,4.95
2023-02-24T19:14:23.426Z,4.91
2023-02-24T19:16:55.205Z,4.88
2023-02-24T19:19:24.187Z,4.86
2023-02-24T19:21:52.997Z,4.84
2023-02-24T19:24:22.251Z,4.82
2023-02-24T19:26:53.155Z,4.82
2023-02-24T19:29:22.232Z,4.80
2023-02-24T19:31:53.990Z,4.81
2023-02-24T19:34:24.288Z,4.80
2023-02-24T19:36:52.802Z,4.80
2023-02-24T19:39:21.301Z,4.81
2023-02-24T19:41:50.177Z,4.82
2023-02-24T19:44:21.257Z,4.81
2023-02-24T19:46:50.020Z,4.81
2023-02-24T19:49:18.593Z,4.83
2023-02-24T19:51:48.628Z,4.83
2023-02-24T19:54:17.293Z,4.83
2023-02-24T19:56:46.028Z,4.84
2023-02-24T19:59:14.783Z,4.83
2023-02-24T20:01:46.630Z,4.85
2023-02-24T20:04:15.218Z,4.84
2023-02-24T20:06:44.315Z,4.85
2023-02-24T20:09:16.185Z,4.85
2023-02-24T20:11:46.229Z,4.83
2023-02-24T20:14:16.207Z,4.80
2023-02-24T20:16:45.380Z,4.77
2023-02-24T20:19:15.826Z,4.74
2023-02-24T20:21:44.909Z,4.70
2023-02-24T20:24:17.320Z,4.68
2023-02-24T20:26:49.624Z,4.64
2023-02-24T20:29:20.767Z,4.60
2023-02-24T20:31:50.061Z,4.58
2023-02-24T20:34:21.109Z,4.56
2023-02-24T20:36:49.791Z,4.53
2023-02-24T20:39:21.920Z,4.50
2023-02-24T20:41:51.007Z,4.46
2023-02-24T20:44:19.519Z,4.43
2023-02-24T20:46:48.542Z,4.42
2023-02-24T20:49:17.216Z,4.40
2023-02-24T20:51:46.306Z,4.39
2023-02-24T20:54:15.815Z,4.39
2023-02-24T20:56:47.068Z,4.36
2023-02-24T20:59:18.368Z,4.35
2023-02-24T21:01:48.430Z,4.33
2023-02-24T21:04:19.642Z,4.32
2023-02-24T21:06:48.964Z,4.29
2023-02-24T21:09:17.629Z,4.26
2023-02-24T21:11:47.839Z,4.24
2023-02-24T21:14:17.776Z,4.21
2023-02-24T21:16:47.016Z,4.19
2023-02-24T21:19:17.753Z,4.17
2023-02-24T21:21:46.554Z,4.15
2023-02-24T21:24:15.340Z,4.13
2023-02-24T21:26:44.094Z,4.09
2023-02-24T21:29:14.242Z,4.07
2023-02-24T21:31:45.688Z,4.04
2023-02-24T21:34:16.900Z,4.02
2023-02-24T21:36:46.637Z,4.00
2023-02-24T21:39:15.526Z,3.97
2023-02-24T21:41:44.725Z,3.96
2023-02-24T21:44:17.255Z,3.95
2023-02-24T21:46:46.000Z,3.92
2023-02-24T21:49:18.309Z,3.90
2023-02-24T21:51:46.956Z,3.88
2023-02-24T21:54:15.829Z,3.86
2023-02-24T21:56:44.595Z,3.87
2023-02-24T21:59:14.557Z,3.87
2023-02-24T22:01:45.286Z,3.86
2023-02-24T22:04:16.951Z,3.86
2023-02-24T22:06:46.447Z,3.87
2023-02-24T22:09:19.413Z,3.87
2023-02-24T22:11:51.452Z,3.88
2023-02-24T22:14:21.651Z,3.90
2023-02-24T22:16:50.449Z,3.92
2023-02-24T22:19:20.176Z,3.93
2023-02-24T22:21:49.038Z,3.94
2023-02-24T22:24:21.415Z,3.95
2023-02-24T22:26:53.913Z,3.96
2023-02-24T22:29:24.464Z,3.96
2023-02-24T22:31:53.563Z,3.96
2023-02-24T22:34:22.369Z,3.96
2023-02-24T22:36:51.012Z,3.96
2023-02-24T22:39:19.690Z,3.97
2023-02-24T22:41:51.641Z,3.97
2023-02-24T22:44:21.105Z,3.98
2023-02-24T22:46:51.073Z,3.98
2023-02-24T22:49:19.690Z,3.97
2023-02-24T22:51:48.476Z,3.96
2023-02-24T22:54:17.464Z,3.96
2023-02-24T22:56:46.651Z,3.94
2023-02-24T22:59:15.889Z,3.92
2023-02-24T23:01:44.751Z,3.88
2023-02-24T23:04:18.859Z,3.92
2023-02-24T23:06:48.283Z,3.92
2023-02-24T23:09:21.789Z,3.92
2023-02-24T23:11:50.314Z,3.92
2023-02-24T23:14:18.986Z,3.93
2023-02-24T23:16:55.810Z,3.91
2023-02-24T23:19:25.948Z,3.92
2023-02-24T23:21:56.259Z,3.91
2023-02-24T23:24:24.708Z,3.93
2023-02-24T23:26:57.252Z,3.92
2023-02-24T23:29:26.761Z,3.92
2023-02-24T23:31:55.344Z,3.92
2023-02-24T23:34:25.588Z,3.92
2023-02-24T23:36:54.174Z,3.92
2023-02-24T23:39:24.109Z,3.90
2023-02-24T23:41:56.690Z,3.90
2023-02-24T23:44:25.949Z,3.89
2023-02-24T23:46:54.836Z,3.89
2023-02-24T23:49:23.259Z,3.90
2023-02-24T23:51:53.244Z,3.92
2023-02-24T23:54:21.646Z,3.92
2023-02-24T23:56:50.311Z,3.92
2023-02-24T23:59:18.788Z,3.91
